createdAt,value
2023-01-08T00:00:48.539Z,937.72
2023-01-08T00:01:48.486Z,937.77
2023-01-08T00:02:48.608Z,937.74
2023-01-08T00:03:48.671Z,937.75
2023-01-08T00:04:48.532Z,937.79
2023-01-08T00:05:48.545Z,937.75
2023-01-08T00:06:48.560Z,937.76
2023-01-08T00:07:48.624Z,937.80
2023-01-08T00:08:48.578Z,937.77
2023-01-08T00:09:48.602Z,937.74
2023-01-08T00:10:48.618Z,937.70
2023-01-08T00:11:48.740Z,937.71
2023-01-08T00:12:48.632Z,937.74
2023-01-08T00:13:48.645Z,937.69
2023-01-08T00:14:48.660Z,937.71
2023-01-08T00:15:48.685Z,937.72
2023-01-08T00:16:48.741Z,937.72
2023-01-08T00:17:48.702Z,937.67
2023-01-08T00:18:48.740Z,937.70
2023-01-08T00:19:48.749Z,937.70
2023-01-08T00:20:48.740Z,937.71
2023-01-08T00:21:48.767Z,937.71
2023-01-08T00:22:48.775Z,937.70
2023-01-08T00:23:48.792Z,937.72
2023-01-08T00:24:48.821Z,937.72
2023-01-08T00:25:48.816Z,937.71
2023-01-08T00:26:48.837Z,937.74
2023-01-08T00:27:48.950Z,937.73
2023-01-08T00:28:48.851Z,937.80
2023-01-08T00:29:48.868Z,937.77
2023-01-08T00:30:48.954Z,937.81
2023-01-08T00:31:48.887Z,937.80
2023-01-08T00:32:48.911Z,937.79
2023-01-08T00:33:48.924Z,937.83
2023-01-08T00:34:48.935Z,937.83
2023-01-08T00:35:48.957Z,937.82
2023-01-08T00:36:48.966Z,937.80
2023-01-08T00:37:48.971Z,937.82
2023-01-08T00:38:48.998Z,937.80
2023-01-08T00:39:48.993Z,937.83
2023-01-08T00:40:49.019Z,937.83
2023-01-08T00:41:49.064Z,937.84
2023-01-08T00:42:49.052Z,937.85
2023-01-08T00:43:49.176Z,937.86
2023-01-08T00:44:49.072Z,937.80
2023-01-08T00:45:49.108Z,937.78
2023-01-08T00:46:49.108Z,937.76
2023-01-08T00:47:49.112Z,937.76
2023-01-08T00:48:49.117Z,937.72
2023-01-08T00:49:49.130Z,937.77
2023-01-08T00:50:49.153Z,937.75
2023-01-08T00:51:49.164Z,937.77
2023-01-08T00:52:49.173Z,937.79
2023-01-08T00:53:49.209Z,937.82
2023-01-08T00:54:49.197Z,937.78
2023-01-08T00:55:49.217Z,937.76
2023-01-08T00:56:49.231Z,937.78
2023-01-08T00:57:49.245Z,937.78
2023-01-08T00:58:49.251Z,937.74
2023-01-08T00:59:49.383Z,937.78
2023-01-08T01:00:49.318Z,937.79
2023-01-08T01:01:49.499Z,937.81
2023-01-08T01:02:49.313Z,937.83
2023-01-08T01:03:49.399Z,937.81
2023-01-08T01:04:49.342Z,937.83
2023-01-08T01:05:49.351Z,937.85
2023-01-08T01:06:49.373Z,937.84
2023-01-08T01:07:49.372Z,937.83
2023-01-08T01:08:49.390Z,937.84
2023-01-08T01:09:49.397Z,937.82
2023-01-08T01:10:49.412Z,937.82
2023-01-08T01:11:49.432Z,937.83
2023-01-08T01:12:49.448Z,937.84
2023-01-08T01:13:49.459Z,937.83
2023-01-08T01:14:49.481Z,937.84
2023-01-08T01:15:49.604Z,937.85
2023-01-08T01:16:49.596Z,937.82
2023-01-08T01:17:49.506Z,937.82
2023-01-08T01:18:49.552Z,937.86
2023-01-08T01:19:49.539Z,937.86
2023-01-08T01:20:49.548Z,937.88
2023-01-08T01:21:49.567Z,937.90
2023-01-08T01:22:49.579Z,937.89
2023-01-08T01:23:49.602Z,937.91
2023-01-08T01:24:49.599Z,937.93
2023-01-08T01:25:49.614Z,937.92
2023-01-08T01:26:49.634Z,937.93
2023-01-08T01:27:49.638Z,937.87
2023-01-08T01:28:49.660Z,937.87
2023-01-08T01:29:49.673Z,937.83
2023-01-08T01:30:49.700Z,937.81
2023-01-08T01:31:49.817Z,937.74
2023-01-08T01:32:49.704Z,937.75
2023-01-08T01:33:49.727Z,937.77
2023-01-08T01:34:49.732Z,937.75
2023-01-08T01:35:49.753Z,937.75
2023-01-08T01:36:49.765Z,937.75
2023-01-08T01:37:49.780Z,937.77
2023-01-08T01:38:49.795Z,937.76
2023-01-08T01:39:49.809Z,937.76
2023-01-08T01:40:49.812Z,937.76
2023-01-08T01:41:49.828Z,937.74
2023-01-08T01:42:49.855Z,937.72
2023-01-08T01:43:49.882Z,937.71
2023-01-08T01:44:49.865Z,937.69
2023-01-08T01:45:49.952Z,937.65
2023-01-08T01:46:49.894Z,937.68
2023-01-08T01:47:50.039Z,937.69
2023-01-08T01:48:49.933Z,937.68
2023-01-08T01:49:49.940Z,937.70
2023-01-08T01:50:49.957Z,937.70
2023-01-08T01:51:49.975Z,937.73
2023-01-08T01:52:49.986Z,937.75
2023-01-08T01:53:49.992Z,937.74
2023-01-08T01:54:50.012Z,937.71
2023-01-08T01:55:50.025Z,937.71
2023-01-08T01:56:50.042Z,937.71
2023-01-08T01:57:50.048Z,937.70
2023-01-08T01:58:50.053Z,937.65
2023-01-08T01:59:50.080Z,937.63
2023-01-08T02:00:50.080Z,937.66
2023-01-08T02:01:50.295Z,937.64
2023-01-08T02:02:50.110Z,937.62
2023-01-08T02:03:50.467Z,937.66
2023-01-08T02:04:50.134Z,937.64
2023-01-08T02:05:50.153Z,937.66
2023-01-08T02:06:50.159Z,937.65
2023-01-08T02:07:50.181Z,937.61
2023-01-08T02:08:50.187Z,937.64
2023-01-08T02:09:50.203Z,937.61
2023-01-08T02:10:50.222Z,937.60
2023-01-08T02:11:50.235Z,937.60
2023-01-08T02:12:50.255Z,937.58
2023-01-08T02:13:50.259Z,937.58
2023-01-08T02:14:50.274Z,937.57
2023-01-08T02:15:50.281Z,937.59
2023-01-08T02:16:50.478Z,937.59
2023-01-08T02:17:50.318Z,937.59
2023-01-08T02:18:50.319Z,937.56
2023-01-08T02:19:50.455Z,937.58
2023-01-08T02:20:50.354Z,937.56
2023-01-08T02:21:50.369Z,937.56
2023-01-08T02:22:50.392Z,937.52
2023-01-08T02:23:50.398Z,937.57
2023-01-08T02:24:50.400Z,937.53
2023-01-08T02:25:50.417Z,937.57
2023-01-08T02:26:50.427Z,937.56
2023-01-08T02:27:50.446Z,937.56
2023-01-08T02:28:50.455Z,937.60
2023-01-08T02:29:50.467Z,937.56
2023-01-08T02:30:50.539Z,937.56
2023-01-08T02:31:50.501Z,937.56
2023-01-08T02:32:50.508Z,937.56
2023-01-08T02:33:50.532Z,937.56
2023-01-08T02:34:50.534Z,937.52
2023-01-08T02:35:50.674Z,937.48
2023-01-08T02:36:50.566Z,937.50
2023-01-08T02:37:50.584Z,937.48
2023-01-08T02:38:50.586Z,937.47
2023-01-08T02:39:50.612Z,937.46
2023-01-08T02:40:50.613Z,937.43
2023-01-08T02:41:50.637Z,937.43
2023-01-08T02:42:50.648Z,937.41
2023-01-08T02:43:50.660Z,937.39
2023-01-08T02:44:50.679Z,937.39
2023-01-08T02:45:50.740Z,937.36
2023-01-08T02:46:50.705Z,937.41
2023-01-08T02:47:50.721Z,937.38
2023-01-08T02:48:50.721Z,937.42
2023-01-08T02:49:50.736Z,937.43
2023-01-08T02:50:50.752Z,937.39
2023-01-08T02:51:50.892Z,937.34
2023-01-08T02:52:50.787Z,937.37
2023-01-08T02:53:50.802Z,937.36
2023-01-08T02:54:50.808Z,937.35
2023-01-08T02:55:50.842Z,937.34
2023-01-08T02:56:50.837Z,937.32
2023-01-08T02:57:50.840Z,937.30
2023-01-08T02:58:50.857Z,937.31
2023-01-08T02:59:50.873Z,937.28
2023-01-08T03:00:50.888Z,937.28
2023-01-08T03:01:51.004Z,937.27
2023-01-08T03:02:50.918Z,937.28
2023-01-08T03:03:51.010Z,937.29
2023-01-08T03:04:50.937Z,937.28
2023-01-08T03:05:50.958Z,937.29
2023-01-08T03:06:50.962Z,937.26
2023-01-08T03:07:51.105Z,937.29
2023-01-08T03:08:50.995Z,937.25
2023-01-08T03:09:51.005Z,937.25
2023-01-08T03:10:51.020Z,937.30
2023-01-08T03:11:51.040Z,937.26
2023-01-08T03:12:51.048Z,937.26
2023-01-08T03:13:51.088Z,937.27
2023-01-08T03:14:51.082Z,937.26
2023-01-08T03:15:51.105Z,937.25
2023-01-08T03:16:51.228Z,937.27
2023-01-08T03:17:51.106Z,937.23
2023-01-08T03:18:51.127Z,937.23
2023-01-08T03:19:51.138Z,937.19
2023-01-08T03:20:51.153Z,937.22
2023-01-08T03:21:51.169Z,937.20
2023-01-08T03:22:51.174Z,937.16
2023-01-08T03:23:51.311Z,937.21
2023-01-08T03:24:51.204Z,937.18
2023-01-08T03:25:51.228Z,937.16
2023-01-08T03:26:51.234Z,937.15
2023-01-08T03:27:51.240Z,937.16
2023-01-08T03:28:51.263Z,937.14
2023-01-08T03:29:51.266Z,937.12
2023-01-08T03:30:51.342Z,937.10
2023-01-08T03:31:51.291Z,937.09
2023-01-08T03:32:51.311Z,937.07
2023-01-08T03:33:51.321Z,937.05
2023-01-08T03:34:51.354Z,937.05
2023-01-08T03:35:51.356Z,937.06
2023-01-08T03:36:51.369Z,937.01
2023-01-08T03:37:51.373Z,936.98
2023-01-08T03:38:51.401Z,937.04
2023-01-08T03:39:51.523Z,937.01
2023-01-08T03:40:51.422Z,937.01
2023-01-08T03:41:51.436Z,936.99
2023-01-08T03:42:51.447Z,936.97
2023-01-08T03:43:51.460Z,936.95
2023-01-08T03:44:51.474Z,936.89
2023-01-08T03:45:51.569Z,936.89
2023-01-08T03:46:51.514Z,936.87
2023-01-08T03:47:51.515Z,936.85
2023-01-08T03:48:51.531Z,936.83
2023-01-08T03:49:51.555Z,936.82
2023-01-08T03:50:51.548Z,936.85
2023-01-08T03:51:51.575Z,936.85
2023-01-08T03:52:51.581Z,936.84
2023-01-08T03:53:51.596Z,936.84
2023-01-08T03:54:51.602Z,936.81
2023-01-08T03:55:51.779Z,936.82
2023-01-08T03:56:51.632Z,936.80
2023-01-08T03:57:51.640Z,936.81
2023-01-08T03:58:51.661Z,936.78
2023-01-08T03:59:51.666Z,936.75
2023-01-08T04:00:51.683Z,936.71
2023-01-08T04:01:51.827Z,936.66
2023-01-08T04:02:51.715Z,936.67
2023-01-08T04:03:51.740Z,936.64
2023-01-08T04:04:51.734Z,936.59
2023-01-08T04:05:51.743Z,936.63
2023-01-08T04:06:51.772Z,936.63
2023-01-08T04:07:51.775Z,936.62
2023-01-08T04:08:51.790Z,936.60
2023-01-08T04:09:51.822Z,936.61
2023-01-08T04:10:51.815Z,936.58
2023-01-08T04:11:51.856Z,936.59
2023-01-08T04:12:51.847Z,936.54
2023-01-08T04:13:51.861Z,936.51
2023-01-08T04:14:51.875Z,936.46
2023-01-08T04:15:51.974Z,936.44
2023-01-08T04:16:51.892Z,936.42
2023-01-08T04:17:51.903Z,936.37
2023-01-08T04:18:51.924Z,936.37
2023-01-08T04:19:51.939Z,936.33
2023-01-08T04:20:51.972Z,936.33
2023-01-08T04:21:51.977Z,936.29
2023-01-08T04:22:51.974Z,936.25
2023-01-08T04:23:51.983Z,936.25
2023-01-08T04:24:52.009Z,936.23
2023-01-08T04:25:52.015Z,936.22
2023-01-08T04:26:52.024Z,936.27
2023-01-08T04:27:52.162Z,936.28
2023-01-08T04:28:52.062Z,936.26
2023-01-08T04:29:52.065Z,936.26
2023-01-08T04:30:52.142Z,936.29
2023-01-08T04:31:52.100Z,936.27
2023-01-08T04:32:52.118Z,936.33
2023-01-08T04:33:52.138Z,936.27
2023-01-08T04:34:52.132Z,936.27
2023-01-08T04:35:52.147Z,936.20
2023-01-08T04:36:52.166Z,936.20
2023-01-08T04:37:52.179Z,936.19
2023-01-08T04:38:52.188Z,936.18
2023-01-08T04:39:52.199Z,936.14
2023-01-08T04:40:52.217Z,936.15
2023-01-08T04:41:52.237Z,936.15
2023-01-08T04:42:52.248Z,936.12
2023-01-08T04:43:52.392Z,936.13
2023-01-08T04:44:52.277Z,936.12
2023-01-08T04:45:52.434Z,936.06
2023-01-08T04:46:52.300Z,936.04
2023-01-08T04:47:52.311Z,936.05
2023-01-08T04:48:52.319Z,936.04
2023-01-08T04:49:52.340Z,936.05
2023-01-08T04:50:52.343Z,936.02
2023-01-08T04:51:52.374Z,936.01
2023-01-08T04:52:52.381Z,936.02
2023-01-08T04:53:52.385Z,936.00
2023-01-08T04:54:52.411Z,936.02
2023-01-08T04:55:52.413Z,936.03
2023-01-08T04:56:52.431Z,936.01
2023-01-08T04:57:52.446Z,936.02
2023-01-08T04:58:52.457Z,935.98
2023-01-08T04:59:52.593Z,935.98
2023-01-08T05:00:52.476Z,935.96
2023-01-08T05:01:52.622Z,935.95
2023-01-08T05:02:52.646Z,935.97
2023-01-08T05:03:52.527Z,935.90
2023-01-08T05:04:52.538Z,935.91
2023-01-08T05:05:52.551Z,935.87
2023-01-08T05:06:52.560Z,935.88
2023-01-08T05:07:52.570Z,935.82
2023-01-08T05:08:52.597Z,935.82
2023-01-08T05:09:52.602Z,935.77
2023-01-08T05:10:52.613Z,935.80
2023-01-08T05:11:52.636Z,935.78
2023-01-08T05:12:52.643Z,935.83
2023-01-08T05:13:52.660Z,935.79
2023-01-08T05:14:52.668Z,935.83
2023-01-08T05:15:52.845Z,935.81
2023-01-08T05:16:52.687Z,935.77
2023-01-08T05:17:52.704Z,935.78
2023-01-08T05:18:52.718Z,935.75
2023-01-08T05:19:52.736Z,935.77
2023-01-08T05:20:52.741Z,935.75
2023-01-08T05:21:52.762Z,935.76
2023-01-08T05:22:52.774Z,935.72
2023-01-08T05:23:52.794Z,935.75
2023-01-08T05:24:52.797Z,935.71
2023-01-08T05:25:52.815Z,935.74
2023-01-08T05:26:52.830Z,935.71
2023-01-08T05:27:52.918Z,935.71
2023-01-08T05:28:52.871Z,935.71
2023-01-08T05:29:52.865Z,935.73
2023-01-08T05:30:52.966Z,935.70
2023-01-08T05:31:53.011Z,935.73
2023-01-08T05:32:52.906Z,935.71
2023-01-08T05:33:52.926Z,935.68
2023-01-08T05:34:52.940Z,935.69
2023-01-08T05:35:52.951Z,935.66
2023-01-08T05:36:52.959Z,935.66
2023-01-08T05:37:52.966Z,935.67
2023-01-08T05:38:52.988Z,935.69
2023-01-08T05:39:53.003Z,935.68
2023-01-08T05:40:53.017Z,935.71
2023-01-08T05:41:53.030Z,935.71
2023-01-08T05:42:53.041Z,935.68
2023-01-08T05:43:53.059Z,935.69
2023-01-08T05:44:53.059Z,935.64
2023-01-08T05:45:53.162Z,935.63
2023-01-08T05:46:53.093Z,935.60
2023-01-08T05:47:53.228Z,935.62
2023-01-08T05:48:53.124Z,935.61
2023-01-08T05:49:53.136Z,935.57
2023-01-08T05:50:53.146Z,935.54
2023-01-08T05:51:53.161Z,935.57
2023-01-08T05:52:53.172Z,935.53
2023-01-08T05:53:53.177Z,935.54
2023-01-08T05:54:53.429Z,935.51
2023-01-08T05:55:53.212Z,935.49
2023-01-08T05:56:53.217Z,935.47
2023-01-08T05:57:53.245Z,935.48
2023-01-08T05:58:53.275Z,935.47
2023-01-08T05:59:53.260Z,935.44
2023-01-08T06:00:53.277Z,935.45
2023-01-08T06:01:53.358Z,935.44
2023-01-08T06:02:53.379Z,935.39
2023-01-08T06:03:53.481Z,935.39
2023-01-08T06:04:53.326Z,935.38
2023-01-08T06:05:53.345Z,935.38
2023-01-08T06:06:53.358Z,935.38
2023-01-08T06:07:53.371Z,935.33
2023-01-08T06:08:53.376Z,935.34
2023-01-08T06:09:53.398Z,935.33
2023-01-08T06:10:53.406Z,935.31
2023-01-08T06:11:53.423Z,935.32
2023-01-08T06:12:53.465Z,935.33
2023-01-08T06:13:53.502Z,935.31
2023-01-08T06:14:53.461Z,935.34
2023-01-08T06:15:53.542Z,935.31
2023-01-08T06:16:53.482Z,935.29
2023-01-08T06:17:53.499Z,935.27
2023-01-08T06:18:53.517Z,935.27
2023-01-08T06:19:53.647Z,935.29
2023-01-08T06:20:53.536Z,935.27
2023-01-08T06:21:53.550Z,935.25
2023-01-08T06:22:53.566Z,935.27
2023-01-08T06:23:53.577Z,935.27
2023-01-08T06:24:53.588Z,935.25
2023-01-08T06:25:53.605Z,935.24
2023-01-08T06:26:53.630Z,935.25
2023-01-08T06:27:53.633Z,935.26
2023-01-08T06:28:53.652Z,935.28
2023-01-08T06:29:53.655Z,935.23
2023-01-08T06:30:53.730Z,935.25
2023-01-08T06:31:53.691Z,935.23
2023-01-08T06:32:53.704Z,935.21
2023-01-08T06:33:53.716Z,935.20
2023-01-08T06:34:53.724Z,935.23
2023-01-08T06:35:53.849Z,935.23
2023-01-08T06:36:53.756Z,935.24
2023-01-08T06:37:53.785Z,935.24
2023-01-08T06:38:53.782Z,935.23
2023-01-08T06:39:53.795Z,935.22
2023-01-08T06:40:53.804Z,935.21
2023-01-08T06:41:53.820Z,935.20
2023-01-08T06:42:53.827Z,935.23
2023-01-08T06:43:53.855Z,935.20
2023-01-08T06:44:53.868Z,935.25
2023-01-08T06:45:53.875Z,935.22
2023-01-08T06:46:53.931Z,935.22
2023-01-08T06:47:54.191Z,935.24
2023-01-08T06:48:53.908Z,935.23
2023-01-08T06:49:53.925Z,935.17
2023-01-08T06:50:53.940Z,935.17
2023-01-08T06:51:53.971Z,935.15
2023-01-08T06:52:53.971Z,935.17
2023-01-08T06:53:53.970Z,935.14
2023-01-08T06:54:53.991Z,935.11
2023-01-08T06:55:54.004Z,935.13
2023-01-08T06:56:54.601Z,935.15
2023-01-08T06:57:54.027Z,935.11
2023-01-08T06:58:54.037Z,935.08
2023-01-08T06:59:54.052Z,935.08
2023-01-08T07:00:54.074Z,935.07
2023-01-08T07:01:54.185Z,935.06
2023-01-08T07:02:54.255Z,935.03
2023-01-08T07:03:54.120Z,935.04
2023-01-08T07:04:54.115Z,935.02
2023-01-08T07:05:54.147Z,935.04
2023-01-08T07:06:54.164Z,935.03
2023-01-08T07:07:54.280Z,935.09
2023-01-08T07:08:54.175Z,935.10
2023-01-08T07:09:54.189Z,935.10
2023-01-08T07:10:54.230Z,935.11
2023-01-08T07:11:54.216Z,935.13
2023-01-08T07:12:54.222Z,935.18
2023-01-08T07:13:54.234Z,935.21
2023-01-08T07:14:54.263Z,935.22
2023-01-08T07:15:54.285Z,935.20
2023-01-08T07:16:54.273Z,935.22
2023-01-08T07:17:54.294Z,935.22
2023-01-08T07:18:54.319Z,935.21
2023-01-08T07:19:54.319Z,935.19
2023-01-08T07:20:54.336Z,935.21
2023-01-08T07:21:54.355Z,935.22
2023-01-08T07:22:54.360Z,935.25
2023-01-08T07:23:54.491Z,935.22
2023-01-08T07:24:54.387Z,935.25
2023-01-08T07:25:54.400Z,935.30
2023-01-08T07:26:54.435Z,935.28
2023-01-08T07:27:54.432Z,935.26
2023-01-08T07:28:54.437Z,935.33
2023-01-08T07:29:54.450Z,935.32
2023-01-08T07:30:54.507Z,935.32
2023-01-08T07:31:54.474Z,935.32
2023-01-08T07:32:54.497Z,935.33
2023-01-08T07:33:54.505Z,935.30
2023-01-08T07:34:54.546Z,935.30
2023-01-08T07:35:54.546Z,935.33
2023-01-08T07:36:54.541Z,935.32
2023-01-08T07:37:54.551Z,935.31
2023-01-08T07:38:54.578Z,935.32
2023-01-08T07:39:54.705Z,935.36
2023-01-08T07:40:54.602Z,935.32
2023-01-08T07:41:54.604Z,935.33
2023-01-08T07:42:54.625Z,935.35
2023-01-08T07:43:54.638Z,935.37
2023-01-08T07:44:54.649Z,935.33
2023-01-08T07:45:54.666Z,935.35
2023-01-08T07:46:54.781Z,935.37
2023-01-08T07:47:54.687Z,935.43
2023-01-08T07:48:54.697Z,935.44
2023-01-08T07:49:54.721Z,935.40
2023-01-08T07:50:54.728Z,935.45
2023-01-08T07:51:54.733Z,935.45
2023-01-08T07:52:54.754Z,935.47
2023-01-08T07:53:54.767Z,935.47
2023-01-08T07:54:54.783Z,935.44
2023-01-08T07:55:54.900Z,935.49
2023-01-08T07:56:54.827Z,935.51
2023-01-08T07:57:54.817Z,935.51
2023-01-08T07:58:54.830Z,935.49
2023-01-08T07:59:54.855Z,935.49
2023-01-08T08:00:54.855Z,935.47
2023-01-08T08:01:55.039Z,935.48
2023-01-08T08:02:55.147Z,935.48
2023-01-08T08:03:54.893Z,935.44
2023-01-08T08:04:54.910Z,935.46
2023-01-08T08:05:54.930Z,935.46
2023-01-08T08:06:54.949Z,935.48
2023-01-08T08:07:54.954Z,935.48
2023-01-08T08:08:54.961Z,935.47
2023-01-08T08:09:54.980Z,935.47
2023-01-08T08:10:54.989Z,935.47
2023-01-08T08:11:55.120Z,935.49
2023-01-08T08:12:55.021Z,935.48
2023-01-08T08:13:56.759Z,935.49
2023-01-08T08:14:55.045Z,935.50
2023-01-08T08:15:55.148Z,935.52
2023-01-08T08:16:55.070Z,935.50
2023-01-08T08:17:55.088Z,935.48
2023-01-08T08:18:55.093Z,935.49
2023-01-08T08:19:55.108Z,935.49
2023-01-08T08:20:55.124Z,935.46
2023-01-08T08:21:55.130Z,935.45
2023-01-08T08:22:55.142Z,935.45
2023-01-08T08:23:55.172Z,935.45
2023-01-08T08:24:55.168Z,935.47
2023-01-08T08:25:55.191Z,935.48
2023-01-08T08:26:55.202Z,935.42
2023-01-08T08:27:55.228Z,935.42
2023-01-08T08:28:55.223Z,935.43
2023-01-08T08:29:55.243Z,935.41
2023-01-08T08:30:55.303Z,935.45
2023-01-08T08:31:55.260Z,935.45
2023-01-08T08:32:55.279Z,935.42
2023-01-08T08:33:55.298Z,935.43
2023-01-08T08:34:55.301Z,935.44
2023-01-08T08:35:55.324Z,935.45
2023-01-08T08:36:55.339Z,935.43
2023-01-08T08:37:55.348Z,935.45
2023-01-08T08:38:55.354Z,935.47
2023-01-08T08:39:55.383Z,935.49
2023-01-08T08:40:55.383Z,935.46
2023-01-08T08:41:55.400Z,935.47
2023-01-08T08:42:55.810Z,935.56
2023-01-08T08:43:55.453Z,935.51
2023-01-08T08:44:55.438Z,935.53
2023-01-08T08:45:55.444Z,935.54
2023-01-08T08:46:55.526Z,935.59
2023-01-08T08:47:55.472Z,935.59
2023-01-08T08:48:55.487Z,935.61
2023-01-08T08:49:55.499Z,935.62
2023-01-08T08:50:55.516Z,935.64
2023-01-08T08:51:55.525Z,935.62
2023-01-08T08:52:55.543Z,935.65
2023-01-08T08:53:55.571Z,935.64
2023-01-08T08:54:55.564Z,935.68
2023-01-08T08:55:55.577Z,935.70
2023-01-08T08:56:55.596Z,935.69
2023-01-08T08:57:55.610Z,935.69
2023-01-08T08:58:55.624Z,935.70
2023-01-08T08:59:55.655Z,935.72
2023-01-08T09:00:55.649Z,935.70
2023-01-08T09:01:55.854Z,935.70
2023-01-08T09:02:55.791Z,935.72
2023-01-08T09:03:55.681Z,935.76
2023-01-08T09:04:55.696Z,935.76
2023-01-08T09:05:55.715Z,935.78
2023-01-08T09:06:55.721Z,935.78
2023-01-08T09:07:55.731Z,935.79
2023-01-08T09:08:55.748Z,935.83
2023-01-08T09:09:55.762Z,935.88
2023-01-08T09:10:55.783Z,935.91
2023-01-08T09:11:55.795Z,935.90
2023-01-08T09:12:55.828Z,935.90
2023-01-08T09:13:55.852Z,935.94
2023-01-08T09:14:55.825Z,936.00
2023-01-08T09:15:56.028Z,935.93
2023-01-08T09:16:55.851Z,936.01
2023-01-08T09:17:55.874Z,936.01
2023-01-08T09:18:55.879Z,936.01
2023-01-08T09:19:55.897Z,935.96
2023-01-08T09:20:55.911Z,936.03
2023-01-08T09:21:55.924Z,936.05
2023-01-08T09:22:55.946Z,936.08
2023-01-08T09:23:55.951Z,936.09
2023-01-08T09:24:55.957Z,936.14
2023-01-08T09:25:55.978Z,936.08
2023-01-08T09:26:55.993Z,936.06
2023-01-08T09:27:56.004Z,936.08
2023-01-08T09:28:56.035Z,936.06
2023-01-08T09:29:56.023Z,936.12
2023-01-08T09:30:56.044Z,936.09
2023-01-08T09:31:56.213Z,936.08
2023-01-08T09:32:56.069Z,936.10
2023-01-08T09:33:56.075Z,936.15
2023-01-08T09:34:56.100Z,936.16
2023-01-08T09:35:56.099Z,936.11
2023-01-08T09:36:56.122Z,936.14
2023-01-08T09:37:56.132Z,936.20
2023-01-08T09:38:56.163Z,936.21
2023-01-08T09:40:02.268Z,936.23
2023-01-08T09:40:56.186Z,936.27
2023-01-08T09:41:56.188Z,936.29
2023-01-08T09:42:56.193Z,936.28
2023-01-08T09:43:56.205Z,936.35
2023-01-08T09:44:56.219Z,936.34
2023-01-08T09:45:56.239Z,936.37
2023-01-08T09:46:56.309Z,936.41
2023-01-08T09:47:56.388Z,936.35
2023-01-08T09:48:56.272Z,936.34
2023-01-08T09:49:56.298Z,936.33
2023-01-08T09:50:56.337Z,936.35
2023-01-08T09:51:56.324Z,936.33
2023-01-08T09:52:56.331Z,936.36
2023-01-08T09:53:56.393Z,936.38
2023-01-08T09:54:56.352Z,936.39
2023-01-08T09:56:09.054Z,936.40
2023-01-08T09:56:56.377Z,936.41
2023-01-08T09:57:56.409Z,936.41
2023-01-08T09:58:56.412Z,936.39
2023-01-08T09:59:56.424Z,936.43
2023-01-08T10:00:56.443Z,936.45
2023-01-08T10:01:56.570Z,936.44
2023-01-08T10:02:56.561Z,936.44
2023-01-08T10:03:56.590Z,936.43
2023-01-08T10:04:56.488Z,936.48
2023-01-08T10:05:56.505Z,936.50
2023-01-08T10:06:56.506Z,936.50
2023-01-08T10:07:56.529Z,936.52
2023-01-08T10:08:56.541Z,936.57
2023-01-08T10:09:56.568Z,936.58
2023-01-08T10:10:56.563Z,936.53
2023-01-08T10:11:56.583Z,936.57
2023-01-08T10:12:56.587Z,936.56
2023-01-08T10:13:56.609Z,936.56
2023-01-08T10:14:56.622Z,936.54
2023-01-08T10:15:56.666Z,936.54
2023-01-08T10:16:56.639Z,936.58
2023-01-08T10:17:56.656Z,936.59
2023-01-08T10:18:56.668Z,936.60
2023-01-08T10:19:56.798Z,936.61
2023-01-08T10:20:56.701Z,936.60
2023-01-08T10:21:56.711Z,936.62
2023-01-08T10:22:56.735Z,936.60
2023-01-08T10:23:56.731Z,936.57
2023-01-08T10:24:56.763Z,936.61
2023-01-08T10:25:56.761Z,936.59
2023-01-08T10:26:56.778Z,936.64
2023-01-08T10:27:56.784Z,936.64
2023-01-08T10:28:56.815Z,936.63
2023-01-08T10:29:56.818Z,936.66
2023-01-08T10:30:56.830Z,936.66
2023-01-08T10:31:56.837Z,936.64
2023-01-08T10:32:56.865Z,936.63
2023-01-08T10:33:56.870Z,936.63
2023-01-08T10:34:56.881Z,936.67
2023-01-08T10:35:56.908Z,936.70
2023-01-08T10:36:56.913Z,936.69
2023-01-08T10:37:57.125Z,936.71
2023-01-08T10:38:56.929Z,936.70
2023-01-08T10:39:56.943Z,936.74
2023-01-08T10:40:56.963Z,936.73
2023-01-08T10:41:56.980Z,936.75
2023-01-08T10:42:56.999Z,936.74
2023-01-08T10:43:56.995Z,936.77
2023-01-08T10:44:57.047Z,936.75
2023-01-08T10:45:57.085Z,936.77
2023-01-08T10:46:57.044Z,936.80
2023-01-08T10:47:57.061Z,936.81
2023-01-08T10:48:57.075Z,936.79
2023-01-08T10:49:57.076Z,936.80
2023-01-08T10:50:57.109Z,936.82
2023-01-08T10:51:57.172Z,936.83
2023-01-08T10:52:57.168Z,936.86
2023-01-08T10:53:57.188Z,936.90
2023-01-08T10:54:57.154Z,936.91
2023-01-08T10:55:57.180Z,936.91
2023-01-08T10:56:57.232Z,936.92
2023-01-08T10:57:57.225Z,936.93
2023-01-08T10:58:57.202Z,936.94
2023-01-08T10:59:57.301Z,936.93
2023-01-08T11:00:57.265Z,936.93
2023-01-08T11:01:57.406Z,936.96
2023-01-08T11:02:57.656Z,936.92
2023-01-08T11:03:57.259Z,936.90
2023-01-08T11:04:57.290Z,936.93
2023-01-08T11:05:57.295Z,936.91
2023-01-08T11:06:57.298Z,936.91
2023-01-08T11:07:57.345Z,936.92
2023-01-08T11:08:57.324Z,936.93
2023-01-08T11:09:57.348Z,936.90
2023-01-08T11:10:57.364Z,936.91
2023-01-08T11:11:57.363Z,936.94
2023-01-08T11:12:57.385Z,936.95
2023-01-08T11:13:57.397Z,936.95
2023-01-08T11:14:57.419Z,936.93
2023-01-08T11:15:57.488Z,936.92
2023-01-08T11:16:57.436Z,936.94
2023-01-08T11:17:57.452Z,936.94
2023-01-08T11:18:57.465Z,936.93
2023-01-08T11:19:57.467Z,936.96
2023-01-08T11:20:57.482Z,936.95
2023-01-08T11:21:57.494Z,936.93
2023-01-08T11:22:57.510Z,936.96
2023-01-08T11:23:57.648Z,936.98
2023-01-08T11:24:57.544Z,936.98
2023-01-08T11:25:57.557Z,936.95
2023-01-08T11:26:57.574Z,937.00
2023-01-08T11:27:57.592Z,936.98
2023-01-08T11:28:57.594Z,936.99
2023-01-08T11:29:57.607Z,936.99
2023-01-08T11:30:59.180Z,937.01
2023-01-08T11:31:57.709Z,937.00
2023-01-08T11:32:57.650Z,936.99
2023-01-08T11:33:57.660Z,936.98
2023-01-08T11:34:57.668Z,937.00
2023-01-08T11:35:57.687Z,937.04
2023-01-08T11:36:57.701Z,937.03
2023-01-08T11:37:57.713Z,937.01
2023-01-08T11:38:57.732Z,937.02
2023-01-08T11:39:57.755Z,937.08
2023-01-08T11:40:57.754Z,937.06
2023-01-08T11:41:57.762Z,937.05
2023-01-08T11:42:57.774Z,937.02
2023-01-08T11:43:57.794Z,937.07
2023-01-08T11:44:57.801Z,937.08
2023-01-08T11:45:57.903Z,937.04
2023-01-08T11:46:57.832Z,937.07
2023-01-08T11:47:57.847Z,937.07
2023-01-08T11:48:57.858Z,937.13
2023-01-08T11:49:57.864Z,937.12
2023-01-08T11:50:57.884Z,937.15
2023-01-08T11:51:57.892Z,937.13
2023-01-08T11:52:57.906Z,937.13
2023-01-08T11:53:57.918Z,937.14
2023-01-08T11:54:57.933Z,937.17
2023-01-08T11:55:57.965Z,937.19
2023-01-08T11:56:57.970Z,937.18
2023-01-08T11:57:57.986Z,937.19
2023-01-08T11:58:57.990Z,937.19
2023-01-08T11:59:57.997Z,937.19
2023-01-08T12:00:58.026Z,937.16
2023-01-08T12:01:58.065Z,937.20
2023-01-08T12:02:58.273Z,937.14
2023-01-08T12:03:58.059Z,937.14
2023-01-08T12:04:58.066Z,937.12
2023-01-08T12:05:58.078Z,937.12
2023-01-08T12:06:58.100Z,937.14
2023-01-08T12:07:58.105Z,937.15
2023-01-08T12:08:58.125Z,937.13
2023-01-08T12:09:58.134Z,937.12
2023-01-08T12:10:58.153Z,937.15
2023-01-08T12:11:58.185Z,937.12
2023-01-08T12:12:58.177Z,937.16
2023-01-08T12:13:58.199Z,937.14
2023-01-08T12:14:58.198Z,937.16
2023-01-08T12:15:58.210Z,937.19
2023-01-08T12:16:58.231Z,937.20
2023-01-08T12:17:58.246Z,937.17
2023-01-08T12:18:58.253Z,937.20
2023-01-08T12:19:58.278Z,937.18
2023-01-08T12:20:58.276Z,937.22
2023-01-08T12:21:58.294Z,937.19
2023-01-08T12:22:58.302Z,937.21
2023-01-08T12:23:58.318Z,937.16
2023-01-08T12:24:58.330Z,937.21
2023-01-08T12:25:58.345Z,937.20
2023-01-08T12:26:58.366Z,937.22
2023-01-08T12:27:58.409Z,937.16
2023-01-08T12:28:58.394Z,937.21